Time;durP1;ratioP1;P1;durP2;ratioP2;P2;SDS_P1;SDS_P2;PMS_P1;PMS_P2;Temp;Humidity;BMP_temperature;BMP_pressure;BME280_temperature;BME280_humidity;BME280_pressure;Samples;Min_cycle;Max_cycle;Signal;HPM_P1;HPM_P2
2023/09/14 00:00:21;;;;;;;0.20;0.20;;;;;;;20.69;56.88;101176.47;4996361;28;20029;-81
2023/09/14 00:02:46;;;;;;;0.20;0.20;;;;;;;20.52;57.34;101153.38;4996328;28;20120;-80
2023/09/14 00:05:12;;;;;;;0.20;0.20;;;;;;;20.48;57.51;101154.59;4996256;28;20495;-81
2023/09/14 00:07:37;;;;;;;0.20;0.20;;;;;;;20.66;57.12;101170.66;4996422;28;20065;-81
2023/09/14 00:10:03;;;;;;;0.20;0.20;;;;;;;20.60;57.20;101166.72;5012574;28;20420;-81
2023/09/14 00:12:29;;;;;;;0.10;0.10;;;;;;;20.57;57.92;101172.22;4996176;28;20035;-81
2023/09/14 00:14:54;;;;;;;0.10;0.10;;;;;;;20.45;57.84;101154.81;4996166;28;20030;-81
2023/09/14 00:17:20;;;;;;;0.20;0.20;;;;;;;20.51;58.05;101167.47;4996002;28;20519;-81
2023/09/14 00:19:46;;;;;;;0.20;0.20;;;;;;;20.52;58.09;101161.25;4996277;28;20061;-82
2023/09/14 00:22:11;;;;;;;0.20;0.20;;;;;;;20.66;57.56;101182.00;5012960;28;20115;-82
2023/09/14 00:24:37;;;;;;;0.20;0.20;;;;;;;20.67;57.36;101170.50;5015590;28;20036;-81
2023/09/14 00:27:03;;;;;;;0.20;0.20;;;;;;;20.66;57.43;101162.75;4999900;28;20087;-80
2023/09/14 00:29:29;;;;;;;0.20;0.20;;;;;;;20.74;56.99;101171.66;4983995;28;20032;-81
2023/09/14 00:31:54;;;;;;;0.20;0.20;;;;;;;20.67;57.63;101173.16;5000112;28;20029;-81
2023/09/14 00:34:20;;;;;;;0.20;0.20;;;;;;;20.64;57.75;101168.13;5000185;28;20412;-81
2023/09/14 00:36:46;;;;;;;0.10;0.10;;;;;;;20.72;57.84;101168.31;5016468;28;20379;-80
2023/09/14 00:39:11;;;;;;;0.10;0.10;;;;;;;20.66;57.62;101152.25;4999857;28;20458;-82
2023/09/14 00:41:37;;;;;;;0.20;0.20;;;;;;;20.67;57.88;101167.88;5015985;28;20025;-82
2023/09/14 00:44:02;;;;;;;0.20;0.20;;;;;;;20.71;57.48;101179.81;4999902;28;20029;-81
2023/09/14 00:46:29;;;;;;;0.20;0.20;;;;;;;20.68;57.83;101185.31;5033754;28;20037;-81
2023/09/14 00:48:54;;;;;;;0.20;0.20;;;;;;;20.72;57.96;101183.25;5015882;28;20026;-81
2023/09/14 00:51:20;;;;;;;0.20;0.20;;;;;;;20.75;57.58;101181.22;5015911;28;20025;-81
2023/09/14 00:53:47;;;;;;;0.20;0.20;;;;;;;20.72;57.50;101178.84;5016020;28;20029;-81
2023/09/14 00:56:13;;;;;;;0.17;0.17;;;;;;;20.57;57.52;101156.47;4999363;28;20036;-81
2023/09/14 00:58:39;;;;;;;0.20;0.20;;;;;;;20.59;57.59;101168.50;5016133;28;20403;-82
2023/09/14 01:01:04;;;;;;;0.20;0.20;;;;;;;20.55;58.06;101175.00;5015883;28;20030;-81
2023/09/14 01:03:30;;;;;;;0.20;0.20;;;;;;;20.55;57.98;101184.63;5015812;28;20021;-81
2023/09/14 01:05:56;;;;;;;0.10;0.10;;;;;;;20.39;58.32;101160.56;5015552;28;20026;-80
2023/09/14 01:08:21;;;;;;;0.10;0.10;;;;;;;20.46;57.85;101153.88;4999500;28;20030;-81
2023/09/14 01:10:46;;;;;;;0.20;0.20;;;;;;;20.26;58.53;101126.59;5015688;28;20453;-80
2023/09/14 01:13:17;;;;;;;0.20;0.20;;;;;;;20.46;58.16;101164.41;5015788;28;20033;-81
2023/09/14 01:15:47;;;;;;;0.13;0.13;;;;;;;20.51;57.96;101176.19;4999632;28;20557;-81
2023/09/14 01:18:18;;;;;;;0.20;0.20;;;;;;;20.53;58.05;101170.78;4983034;28;20049;-80
2023/09/14 01:21:07;;;;;;;0.20;0.20;;;;;;;20.49;58.04;101174.66;4999515;28;20111;-81
2023/09/14 01:24:03;;;;;;;0.20;0.20;;;;;;;20.38;58.42;101172.03;5015036;28;20132;-81
2023/09/14 01:26:29;;;;;;;0.20;0.20;;;;;;;20.39;58.44;101165.81;5033113;28;20037;-81
2023/09/14 01:28:54;;;;;;;0.20;0.20;;;;;;;20.32;58.10;101168.94;4999087;28;20095;-81
2023/09/14 01:31:20;;;;;;;0.15;0.15;;;;;;;20.39;58.02;101160.56;5032819;28;20095;-81
2023/09/14 01:33:48;;;;;;;0.20;0.20;;;;;;;20.40;58.28;101170.94;4998674;28;20030;-80
2023/09/14 01:36:28;;;;;;;0.20;0.20;;;;;;;20.42;58.51;101173.44;4998355;28;20043;-80
2023/09/14 01:38:54;;;;;;;0.20;0.20;;;;;;;20.38;58.32;101166.78;5014633;28;20029;-82
2023/09/14 01:41:20;;;;;;;0.20;0.20;;;;;;;20.43;57.77;101170.72;4982732;28;20038;-81
2023/09/14 01:43:49;;;;;;;0.10;0.10;;;;;;;20.32;58.23;101165.47;4998829;28;20079;-81
2023/09/14 01:46:14;;;;;;;0.20;0.20;;;;;;;20.15;58.27;101145.81;4998631;28;20060;-81
2023/09/14 01:48:40;;;;;;;0.20;0.20;;;;;;;20.34;58.38;101177.53;4982472;28;20025;-81
2023/09/14 01:51:05;;;;;;;0.20;0.20;;;;;;;20.31;58.44;101172.53;4998456;28;20081;-81
2023/09/14 01:53:30;;;;;;;0.10;0.10;;;;;;;20.26;58.54;101166.00;4997942;28;20025;-80
2023/09/14 01:55:56;;;;;;;0.15;0.15;;;;;;;20.30;58.46;101172.66;4982261;28;20040;-81
2023/09/14 01:58:21;;;;;;;0.10;0.10;;;;;;;20.13;58.39;101158.25;4998151;28;20411;-81
2023/09/14 02:00:47;;;;;;;0.20;0.20;;;;;;;20.23;58.44;101164.41;4998408;28;20481;-81
2023/09/14 02:03:12;;;;;;;0.20;0.20;;;;;;;20.15;58.61;101151.06;5014739;28;20021;-81
2023/09/14 02:05:40;;;;;;;0.20;0.20;;;;;;;20.23;58.87;101164.41;4998444;28;20037;-81
2023/09/14 02:08:05;;;;;;;0.10;0.10;;;;;;;20.23;58.72;101163.59;4998555;28;20030;-81
2023/09/14 02:10:31;;;;;;;0.10;0.10;;;;;;;20.15;58.91;101161.56;4998047;28;20483;-81
2023/09/14 02:12:56;;;;;;;0.20;0.20;;;;;;;20.13;58.40;101158.25;5014561;28;20029;-81
2023/09/14 02:15:22;;;;;;;0.10;0.10;;;;;;;20.16;58.73;101162.44;4997982;28;20062;-81
2023/09/14 02:17:48;;;;;;;0.20;0.20;;;;;;;20.09;58.51;101150.75;4981582;28;20052;-81
2023/09/14 02:20:13;;;;;;;0.20;0.20;;;;;;;20.23;58.54;101169.69;4998112;28;20042;-81
2023/09/14 02:22:39;;;;;;;0.20;0.20;;;;;;;19.97;58.19;101126.31;5014100;28;20030;-80
2023/09/14 02:25:05;;;;;;;0.20;0.20;;;;;;;20.04;58.61;101158.97;5014388;28;20032;-81
2023/09/14 02:27:30;;;;;;;0.20;0.20;;;;;;;19.92;59.14;101154.72;4998285;28;20031;-81
2023/09/14 02:29:55;;;;;;;0.20;0.20;;;;;;;20.07;59.17;101179.78;4997976;28;20045;-81
2023/09/14 02:32:21;;;;;;;0.20;0.20;;;;;;;19.88;59.53;101175.16;5014138;28;20491;-81
2023/09/14 02:34:48;;;;;;;0.10;0.10;;;;;;;19.96;59.54;101177.13;5031771;28;20530;-81
2023/09/14 02:37:13;;;;;;;0.20;0.20;;;;;;;19.97;59.27;101171.78;5013742;28;20509;-81
2023/09/14 02:39:39;;;;;;;0.20;0.20;;;;;;;20.01;59.06;101175.00;5013868;28;20025;-80
2023/09/14 02:42:04;;;;;;;0.13;0.13;;;;;;;19.88;59.24;101166.44;5031685;28;20487;-80
2023/09/14 02:44:30;;;;;;;0.20;0.20;;;;;;;19.94;59.63;101185.13;4981474;28;20033;-81
2023/09/14 02:46:56;;;;;;;0.20;0.20;;;;;;;19.90;59.70;101180.28;4997310;28;20033;-81
2023/09/14 02:49:21;;;;;;;0.20;0.20;;;;;;;19.92;59.61;101166.06;4997517;28;20029;-80
2023/09/14 02:51:47;;;;;;;0.20;0.20;;;;;;;19.92;59.80;101173.09;5013570;28;20029;-80
2023/09/14 02:54:13;;;;;;;0.10;0.10;;;;;;;19.83;60.04;101165.94;5013578;28;20118;-80
2023/09/14 02:56:40;;;;;;;0.20;0.20;;;;;;;19.94;59.89;101173.81;5013976;28;20025;-80
2023/09/14 02:59:05;;;;;;;0.10;0.10;;;;;;;19.93;59.51;101167.72;4981488;28;20447;-81
2023/09/14 03:01:31;;;;;;;0.20;0.20;;;;;;;19.98;59.72;101170.00;5013611;28;20034;-80
2023/09/14 03:03:57;;;;;;;0.20;0.20;;;;;;;19.96;59.74;101167.50;5031232;28;20026;-80
2023/09/14 03:06:22;;;;;;;0.17;0.17;;;;;;;20.39;59.12;101173.69;4980741;28;20128;-80
2023/09/14 03:08:48;;;;;;;0.10;0.10;;;;;;;20.72;57.72;101175.38;5013422;28;20419;-80
2023/09/14 03:11:13;;;;;;;0.20;0.20;;;;;;;21.32;56.38;101181.72;4980887;28;20462;-80
2023/09/14 03:13:39;;;;;;;0.20;0.20;;;;;;;21.66;54.83;101166.50;4997415;28;20400;-80
2023/09/14 03:16:05;;;;;;;0.10;0.10;;;;;;;22.25;54.06;101163.91;5013106;28;20037;-81
2023/09/14 03:18:31;;;;;;;0.20;0.20;;;;;;;22.15;52.63;101160.44;5013182;28;20044;-80
2023/09/14 03:20:56;;;;;;;0.10;0.10;;;;;;;22.02;53.27;101165.94;5012927;28;20052;-80
2023/09/14 03:23:22;;;;;;;0.10;0.10;;;;;;;21.75;53.84;101155.19;4996987;28;20598;-82
2023/09/14 03:25:50;;;;;;;0.10;0.10;;;;;;;22.01;52.86;101174.78;5013006;28;20418;-80
2023/09/14 03:28:17;;;;;;;0.10;0.10;;;;;;;21.77;53.84;101164.59;4997634;28;20033;-81
2023/09/14 03:30:42;;;;;;;0.10;0.10;;;;;;;21.56;54.29;101160.38;4996882;28;20080;-83
2023/09/14 03:33:08;;;;;;;0.10;0.10;;;;;;;21.54;54.95;101171.06;4996992;28;20415;-80
2023/09/14 03:35:33;;;;;;;0.20;0.20;;;;;;;21.54;54.12;101183.38;5012662;28;20047;-80
2023/09/14 03:38:00;;;;;;;0.20;0.20;;;;;;;21.46;54.47;101176.97;4996761;28;20033;-81
2023/09/14 03:40:25;;;;;;;0.20;0.20;;;;;;;21.35;54.99;101184.97;4981270;28;20053;-83
2023/09/14 03:42:51;;;;;;;0.20;0.20;;;;;;;21.51;54.57;101178.34;5012544;28;20044;-80
2023/09/14 03:45:16;;;;;;;0.20;0.20;;;;;;;21.69;54.26;101182.03;5013192;28;20087;-81
2023/09/14 03:47:42;;;;;;;0.10;0.10;;;;;;;21.82;53.88;101182.63;5029574;28;20078;-81
2023/09/14 03:50:08;;;;;;;0.20;0.20;;;;;;;21.89;52.98;101144.25;5012044;28;20053;-81
2023/09/14 03:52:33;;;;;;;0.10;0.10;;;;;;;22.33;52.04;101176.41;5012694;28;20064;-81
2023/09/14 03:54:59;;;;;;;0.10;0.10;;;;;;;22.20;52.29;101174.00;5029102;28;20029;-81
2023/09/14 03:57:24;;;;;;;0.20;0.20;;;;;;;21.95;52.87;101182.41;4996273;28;20048;-81
2023/09/14 03:59:51;;;;;;;0.20;0.20;;;;;;;22.05;52.88;101184.09;5032635;28;20036;-81
2023/09/14 04:02:17;;;;;;;0.10;0.10;;;;;;;22.08;52.61;101184.81;5016803;28;20029;-81
2023/09/14 04:04:43;;;;;;;0.20;0.20;;;;;;;22.29;52.31;101180.25;5016587;28;20107;-81
2023/09/14 04:07:08;;;;;;;0.20;0.20;;;;;;;22.33;51.70;101179.88;5016509;28;20033;-81
2023/09/14 04:09:34;;;;;;;0.20;0.20;;;;;;;22.37;51.77;101183.03;5000195;28;20029;-81
2023/09/14 04:11:59;;;;;;;0.20;0.20;;;;;;;22.44;51.57;101178.91;5016338;28;20037;-81
2023/09/14 04:14:25;;;;;;;0.20;0.20;;;;;;;22.65;50.92;101184.03;5000014;28;20033;-81
2023/09/14 04:16:57;;;;;;;0.20;0.20;;;;;;;22.41;51.38;101187.06;5016245;28;20045;-85
2023/09/14 04:19:24;;;;;;;0.10;0.10;;;;;;;22.07;52.54;101194.53;5032930;28;20025;-83
2023/09/14 04:21:49;;;;;;;0.10;0.10;;;;;;;21.83;53.25;101179.06;5016756;28;20083;-82
2023/09/14 04:24:15;;;;;;;0.20;0.20;;;;;;;21.83;53.27;101184.31;5042441;28;20548;-81
2023/09/14 04:26:40;;;;;;;0.20;0.20;;;;;;;21.82;53.42;101198.44;5033896;28;20483;-83
2023/09/14 04:29:06;;;;;;;0.38;0.20;;;;;;;21.52;54.17;101201.91;5022217;28;20490;-89
2023/09/14 04:31:31;;;;;;;0.10;0.10;;;;;;;21.47;54.32;101199.69;5006644;28;20052;-89
2023/09/14 04:33:56;;;;;;;0.20;0.20;;;;;;;21.57;54.26;101214.69;5001334;28;20095;-88
2023/09/14 04:36:22;;;;;;;0.20;0.20;;;;;;;21.56;53.98;101205.13;4991172;28;20087;-85
2023/09/14 04:38:48;;;;;;;0.20;0.20;;;;;;;21.48;54.58;101218.94;5032588;28;20061;-81
2023/09/14 04:41:14;;;;;;;0.10;0.10;;;;;;;21.63;54.79;101229.94;5047902;28;20061;-80
2023/09/14 04:43:39;;;;;;;0.20;0.20;;;;;;;21.63;54.84;101215.00;4983441;28;20029;-79
2023/09/14 04:46:05;;;;;;;0.20;0.20;;;;;;;21.67;55.09;101231.38;5018551;28;20476;-80
2023/09/14 04:48:30;;;;;;;0.20;0.20;;;;;;;21.74;55.69;101221.97;5030013;28;20466;-83
2023/09/14 04:50:57;;;;;;;0.13;0.13;;;;;;;21.89;54.70;101225.06;5006548;28;20067;-84
2023/09/14 04:53:24;;;;;;;0.20;0.20;;;;;;;22.07;55.95;101225.31;5049682;28;20025;-85
2023/09/14 04:55:49;;;;;;;0.20;0.20;;;;;;;21.94;55.38;101223.72;5014388;28;20108;-81
2023/09/14 04:58:15;;;;;;;0.20;0.20;;;;;;;22.31;54.14;101223.94;5036753;28;20035;-82
2023/09/14 05:00:40;;;;;;;0.20;0.20;;;;;;;22.15;54.51;101220.19;5049031;28;20044;-89
2023/09/14 05:03:06;;;;;;;0.20;0.20;;;;;;;22.09;55.35;101220.72;5000490;28;20051;-92
2023/09/14 05:05:34;;;;;;;0.20;0.20;;;;;;;21.96;55.58;101221.78;5018799;28;20040;-82
2023/09/14 05:07:59;;;;;;;0.17;0.17;;;;;;;21.96;55.32;101220.94;5026445;28;20518;-84
2023/09/14 05:10:28;;;;;;;0.20;0.20;;;;;;;21.83;55.94;101226.47;5020629;28;20545;-84
2023/09/14 05:12:53;;;;;;;0.20;0.20;;;;;;;22.00;57.27;101238.13;5025142;28;20033;-82
2023/09/14 05:15:19;;;;;;;0.20;0.20;;;;;;;22.03;57.37;101217.66;5027281;28;20052;-89
2023/09/14 05:17:44;;;;;;;0.17;0.17;;;;;;;22.32;57.30;101236.19;5014599;28;20476;-83
2023/09/14 05:20:11;;;;;;;0.20;0.20;;;;;;;22.38;57.19;101211.06;5032098;28;20037;-89
2023/09/14 05:22:38;;;;;;;0.20;0.20;;;;;;;22.38;57.71;101233.97;5010382;28;20025;-86
2023/09/14 05:25:04;;;;;;;0.20;0.20;;;;;;;22.51;58.02;101245.91;5006488;28;20036;-85
2023/09/14 05:27:37;;;;;;;0.10;0.10;;;;;;;22.09;58.39;101236.53;5026976;28;20033;-83
2023/09/14 05:30:02;;;;;;;0.20;0.20;;;;;;;22.03;59.20;101254.53;5015166;28;20025;-86
2023/09/14 05:32:28;;;;;;;0.20;0.20;;;;;;;22.27;58.90;101261.28;5024351;28;20066;-82
2023/09/14 05:34:54;;;;;;;0.20;0.20;;;;;;;22.98;57.05;101256.63;5041633;28;20033;-89
2023/09/14 05:37:19;;;;;;;0.20;0.20;;;;;;;23.09;55.63;101237.19;4982363;28;20036;-87
2023/09/14 05:39:45;;;;;;;0.10;0.10;;;;;;;23.45;55.00;101249.63;5004889;28;20075;-88
2023/09/14 05:42:10;;;;;;;0.20;0.20;;;;;;;23.27;52.77;101234.66;5016093;28;20098;-90
2023/09/14 05:44:35;;;;;;;0.20;0.20;;;;;;;23.10;53.34;101228.28;5017457;28;20029;-86
2023/09/14 05:47:01;;;;;;;0.10;0.10;;;;;;;23.53;52.45;101238.34;5011117;28;20526;-88
2023/09/14 05:49:26;;;;;;;0.20;0.20;;;;;;;23.86;51.29;101259.94;5028493;28;20025;-89
2023/09/14 05:51:53;;;;;;;0.20;0.20;;;;;;;23.82;50.74;101240.06;5021726;28;20056;-87
2023/09/14 05:54:18;;;;;;;0.13;0.13;;;;;;;23.79;51.37;101250.91;5014640;28;20022;-87
2023/09/14 05:56:44;;;;;;;0.20;0.20;;;;;;;23.99;51.78;101253.34;5012044;28;20049;-87
2023/09/14 05:59:09;;;;;;;0.20;0.20;;;;;;;23.84;52.03;101240.75;4990900;28;20033;-87
2023/09/14 06:01:36;;;;;;;0.10;0.10;;;;;;;24.03;52.57;101262.63;5033312;28;20538;-85
2023/09/14 06:04:02;;;;;;;0.10;0.10;;;;;;;24.19;52.22;101259.34;5022472;28;20111;-89
2023/09/14 06:06:27;;;;;;;0.20;0.20;;;;;;;24.00;53.04;101260.28;5013483;28;20427;-84
2023/09/14 06:08:52;;;;;;;0.20;0.20;;;;;;;24.10;53.79;101254.13;5006287;28;20039;-85
2023/09/14 06:11:18;;;;;;;0.20;0.20;;;;;;;24.10;54.16;101265.53;5016797;28;20033;-87
2023/09/14 06:13:43;;;;;;;0.15;0.15;;;;;;;24.16;54.02;101256.16;5005440;28;20504;-87
2023/09/14 06:16:09;;;;;;;0.20;0.20;;;;;;;24.29;53.92;101260.13;5015563;28;20103;-89
2023/09/14 06:18:34;;;;;;;0.20;0.20;;;;;;;24.29;54.30;101248.72;5020453;28;20033;-88
2023/09/14 06:21:00;;;;;;;0.20;0.20;;;;;;;24.41;53.75;101257.31;5029747;28;20033;-87
2023/09/14 06:23:25;;;;;;;0.20;0.20;;;;;;;24.47;54.10;101246.94;5023545;28;20029;-89
2023/09/14 06:25:51;;;;;;;0.20;0.20;;;;;;;24.45;54.15;101251.53;5030347;28;20029;-87
2023/09/14 06:28:17;;;;;;;0.20;0.20;;;;;;;24.23;54.98;101236.91;4996446;28;20109;-85
2023/09/14 06:30:42;;;;;;;0.20;0.20;;;;;;;24.40;54.18;101235.31;5019617;28;20395;-86
2023/09/14 06:33:08;;;;;;;0.20;0.20;;;;;;;24.34;54.19;101264.16;5030972;28;20025;-93
2023/09/14 06:35:33;;;;;;;0.15;0.15;;;;;;;24.16;55.28;101264.91;5008484;28;20092;-91
2023/09/14 06:37:59;;;;;;;0.20;0.20;;;;;;;23.90;54.02;101256.88;5025004;28;20035;-86
2023/09/14 06:40:24;;;;;;;0.20;0.20;;;;;;;23.99;55.50;101268.34;5034041;28;20093;-86
2023/09/14 06:42:50;;;;;;;0.20;0.20;;;;;;;23.73;56.46;101263.72;5023649;28;20028;-87
2023/09/14 06:45:15;;;;;;;0.20;0.20;;;;;;;23.83;57.10;101262.88;5003001;28;20037;-93
2023/09/14 06:47:41;;;;;;;0.20;0.20;;;;;;;24.05;55.47;101262.47;5010312;28;20450;-87
2023/09/14 06:50:07;;;;;;;0.20;0.20;;;;;;;24.04;54.91;101274.88;5019799;28;20040;-92
2023/09/14 06:52:34;;;;;;;0.20;0.20;;;;;;;24.06;53.35;101280.00;5009154;28;20502;-94
2023/09/14 06:54:59;;;;;;;0.20;0.20;;;;;;;24.06;54.47;101280.00;5007046;28;20032;-85
2023/09/14 06:57:25;;;;;;;0.20;0.20;;;;;;;23.82;52.97;101288.47;5017329;28;20058;-87
2023/09/14 06:59:50;;;;;;;0.20;0.20;;;;;;;23.79;55.83;101264.13;5012372;28;20033;-86
2023/09/14 07:02:16;;;;;;;0.20;0.20;;;;;;;23.86;55.75;101275.78;5028497;28;20033;-86
2023/09/14 07:04:42;;;;;;;0.20;0.20;;;;;;;23.83;55.68;101284.00;5033229;28;20064;-90
2023/09/14 07:07:08;;;;;;;0.20;0.20;;;;;;;23.98;54.17;101272.78;5017633;28;20024;-86
2023/09/14 07:09:33;;;;;;;0.20;0.20;;;;;;;24.15;52.48;101292.34;5028411;28;20510;-88
2023/09/14 07:11:59;;;;;;;0.20;0.20;;;;;;;24.14;53.81;101282.75;5020805;28;20029;-88
2023/09/14 07:14:24;;;;;;;0.20;0.20;;;;;;;24.27;52.67;101272.63;5019609;28;20056;-90
2023/09/14 07:16:50;;;;;;;0.30;0.30;;;;;;;24.18;52.29;101257.66;5008099;28;20145;-86
2023/09/14 07:19:15;;;;;;;0.20;0.20;;;;;;;24.30;51.31;101280.28;5013641;28;20473;-87
2023/09/14 07:21:41;;;;;;;0.20;0.20;;;;;;;24.25;50.96;101266.69;5033926;28;20041;-93
2023/09/14 07:24:06;;;;;;;0.20;0.20;;;;;;;24.19;51.34;101280.50;5011903;28;20108;-84
2023/09/14 07:26:33;;;;;;;0.20;0.20;;;;;;;24.30;51.03;101280.28;5035910;28;20125;-88
2023/09/14 07:28:59;;;;;;;0.20;0.20;;;;;;;24.48;50.93;101284.78;5029889;28;20025;-84
2023/09/14 07:31:24;;;;;;;0.20;0.20;;;;;;;24.49;51.26;101294.41;5032135;28;20407;-84
2023/09/14 07:33:49;;;;;;;0.20;0.20;;;;;;;24.62;52.50;101289.59;5015805;28;20044;-86
2023/09/14 07:36:15;;;;;;;0.20;0.20;;;;;;;24.68;51.97;101282.84;4999611;28;20033;-85
2023/09/14 07:38:41;;;;;;;0.20;0.20;;;;;;;24.89;48.60;101271.00;5036892;28;20480;-85
2023/09/14 07:41:06;;;;;;;0.20;0.20;;;;;;;24.94;47.67;101264.41;5029632;28;20085;-85
2023/09/14 07:43:32;;;;;;;0.20;0.20;;;;;;;25.21;46.85;101288.16;5030968;28;20033;-88
2023/09/14 07:45:57;;;;;;;0.20;0.20;;;;;;;24.98;49.86;101265.78;5030552;28;20040;-82
2023/09/14 07:48:23;;;;;;;0.20;0.20;;;;;;;25.00;49.46;101272.56;5018256;28;20038;-84
2023/09/14 07:50:48;;;;;;;0.20;0.20;;;;;;;25.22;47.21;101278.38;5021598;28;20380;-92
2023/09/14 07:53:14;;;;;;;0.20;0.20;;;;;;;25.37;45.32;101272.38;5006357;28;20044;-83
2023/09/14 07:55:39;;;;;;;0.20;0.20;;;;;;;25.39;45.39;101269.56;5048242;28;20037;-82
2023/09/14 07:58:08;;;;;;;0.10;0.10;;;;;;;25.56;45.48;101283.72;5028473;28;20076;-85
2023/09/14 08:00:34;;;;;;;0.20;0.20;;;;;;;25.57;45.78;101277.47;4995757;28;20029;-84
2023/09/14 08:03:00;;;;;;;0.20;0.20;;;;;;;25.64;45.13;101274.00;5010943;28;20029;-86
2023/09/14 08:05:26;;;;;;;0.20;0.20;;;;;;;25.80;45.30;101283.09;5009352;28;20040;-90
2023/09/14 08:07:52;;;;;;;0.20;0.20;;;;;;;25.90;45.27;101273.19;5006890;28;20025;-85
2023/09/14 08:10:18;;;;;;;0.10;0.10;;;;;;;25.87;45.68;101254.97;5007124;28;20032;-81
2023/09/14 08:12:43;;;;;;;0.20;0.20;;;;;;;26.07;44.43;101282.88;5041750;28;20025;-84
2023/09/14 08:15:09;;;;;;;0.15;0.15;;;;;;;26.16;44.62;101262.53;5004690;28;20056;-83
2023/09/14 08:17:34;;;;;;;0.20;0.20;;;;;;;26.42;45.12;101283.66;5026508;28;20049;-84
2023/09/14 08:20:00;;;;;;;0.20;0.20;;;;;;;26.63;45.26;101276.06;5025671;28;20071;-89
2023/09/14 08:22:25;;;;;;;0.20;0.20;;;;;;;26.63;42.23;101241.56;4982926;28;20036;-88
2023/09/14 08:24:51;;;;;;;0.20;0.20;;;;;;;26.88;41.63;101274.28;5042307;28;20029;-87
2023/09/14 08:27:17;;;;;;;0.20;0.20;;;;;;;26.82;43.34;101269.63;5005668;28;20048;-86
2023/09/14 08:29:45;;;;;;;0.20;0.20;;;;;;;26.96;43.57;101279.59;5040775;28;20025;-87
2023/09/14 08:32:11;;;;;;;0.20;0.20;;;;;;;26.81;43.22;101244.06;5015195;28;20120;-85
2023/09/14 08:34:37;;;;;;;0.20;0.20;;;;;;;26.94;43.98;101267.47;5041185;28;20030;-87
2023/09/14 08:37:03;;;;;;;0.20;0.20;;;;;;;26.94;44.55;101286.03;5002824;28;20032;-86
2023/09/14 08:39:28;;;;;;;0.20;0.20;;;;;;;26.80;44.21;101263.66;5046679;28;20033;-90
2023/09/14 08:41:54;;;;;;;0.22;0.20;;;;;;;26.70;43.88;101277.09;4982776;28;20037;-88
2023/09/14 08:44:19;;;;;;;0.20;0.20;;;;;;;26.50;44.01;101271.25;5015303;28;20037;-89
2023/09/14 08:46:45;;;;;;;0.20;0.20;;;;;;;26.60;43.53;101265.78;5051111;28;20486;-88
2023/09/14 08:49:10;;;;;;;0.20;0.20;;;;;;;26.72;43.26;101264.47;4999381;28;20044;-88
2023/09/14 08:51:37;;;;;;;0.20;0.20;;;;;;;26.79;43.25;101259.34;5017494;28;20533;-92
2023/09/14 08:54:02;;;;;;;0.20;0.20;;;;;;;26.92;42.88;101254.34;5000636;28;20026;-86
2023/09/14 08:56:28;;;;;;;0.20;0.20;;;;;;;27.04;42.81;101269.00;5016713;28;20035;-90
2023/09/14 08:58:54;;;;;;;0.20;0.20;;;;;;;27.13;43.10;101261.84;5004451;28;20490;-84
2023/09/14 09:01:19;;;;;;;0.20;0.20;;;;;;;27.20;42.07;101256.69;5009136;28;20052;-84
2023/09/14 09:03:45;;;;;;;0.20;0.20;;;;;;;27.27;42.27;101257.69;4999192;28;20487;-90
2023/09/14 09:06:10;;;;;;;0.20;0.20;;;;;;;27.25;42.02;101243.75;5005347;28;20041;-87
2023/09/14 09:08:36;;;;;;;0.20;0.20;;;;;;;27.29;42.56;101245.88;5041675;28;20094;-89
2023/09/14 09:11:02;;;;;;;0.20;0.20;;;;;;;27.32;41.72;101250.03;5035537;28;20585;-85
2023/09/14 09:13:34;;;;;;;0.20;0.20;;;;;;;27.33;42.54;101235.75;5015521;28;20075;-83
2023/09/14 09:16:00;;;;;;;0.20;0.20;;;;;;;27.50;41.27;101245.34;5034294;28;20056;-87
2023/09/14 09:18:26;;;;;;;0.20;0.20;;;;;;;27.58;42.12;101240.00;5027995;28;20497;-87
2023/09/14 09:20:52;;;;;;;0.20;0.20;;;;;;;27.71;41.36;101247.47;5034181;28;20134;-90
2023/09/14 09:23:19;;;;;;;0.20;0.20;;;;;;;27.74;42.08;101233.03;5008280;28;20037;-86
2023/09/14 09:25:47;;;;;;;0.20;0.20;;;;;;;27.90;41.90;101232.94;4999098;28;20522;-87
2023/09/14 09:28:13;;;;;;;0.20;0.20;;;;;;;28.06;42.07;101227.53;5024300;28;20063;-90
2023/09/14 09:30:39;;;;;;;0.20;0.20;;;;;;;28.27;40.28;101230.41;5014841;28;20029;-86
2023/09/14 09:33:04;;;;;;;0.20;0.20;;;;;;;28.40;39.65;101223.69;5025452;28;20021;-86
2023/09/14 09:35:30;;;;;;;0.20;0.20;;;;;;;28.61;39.57;101225.69;5034419;28;20035;-86
2023/09/14 09:37:58;;;;;;;0.20;0.20;;;;;;;28.73;39.19;101211.81;5049637;28;20424;-87
2023/09/14 09:40:24;;;;;;;0.20;0.20;;;;;;;28.91;38.71;101227.50;5036482;28;20055;-91
2023/09/14 09:42:50;;;;;;;0.20;0.20;;;;;;;29.01;39.13;101224.56;5025107;28;20017;-88
2023/09/14 09:45:18;;;;;;;0.20;0.20;;;;;;;28.91;39.94;101223.97;5026584;28;20091;-86
2023/09/14 09:47:43;;;;;;;0.20;0.20;;;;;;;28.86;40.83;101220.00;5023160;28;20033;-88
2023/09/14 09:50:12;;;;;;;0.20;0.20;;;;;;;28.78;41.33;101221.91;4998203;28;20091;-86
2023/09/14 09:52:39;;;;;;;0.20;0.20;;;;;;;28.57;40.87;101201.28;5016529;28;20026;-86
2023/09/14 09:55:06;;;;;;;0.20;0.20;;;;;;;28.74;41.25;101213.47;5000230;28;20071;-88
2023/09/14 09:57:35;;;;;;;0.20;0.20;;;;;;;28.72;38.25;101206.66;5017160;28;20021;-90
2023/09/14 10:00:13;;;;;;;0.20;0.20;;;;;;;28.89;37.85;101223.34;5005536;28;20430;-88
2023/09/14 10:02:39;;;;;;;0.20;0.20;;;;;;;28.95;37.46;101222.63;5019563;28;20040;-85
2023/09/14 10:05:05;;;;;;;0.20;0.20;;;;;;;28.92;37.64;101215.84;5017832;28;20045;-89
2023/09/14 10:07:35;;;;;;;0.20;0.20;;;;;;;28.94;38.17;101210.31;4998549;28;20033;-87
2023/09/14 10:10:01;;;;;;;0.20;0.20;;;;;;;28.88;39.16;101219.00;5003052;28;20032;-93
2023/09/14 10:12:27;;;;;;;0.20;0.20;;;;;;;28.85;38.27;101202.38;4996542;28;20128;-87
2023/09/14 10:14:57;;;;;;;0.20;0.20;;;;;;;28.87;38.54;101212.84;5018269;28;20032;-93
2023/09/14 10:17:22;;;;;;;0.20;0.20;;;;;;;28.89;38.37;101208.19;4985157;28;20099;-93
2023/09/14 10:19:48;;;;;;;0.20;0.20;;;;;;;29.11;38.96;101211.81;4999372;28;20442;-88
2023/09/14 10:22:17;;;;;;;0.20;0.20;;;;;;;29.16;37.85;101217.41;5000606;28;20388;-92
2023/09/14 10:24:43;;;;;;;0.20;0.20;;;;;;;29.11;37.67;101222.47;5002011;28;20130;-92
2023/09/14 10:27:08;;;;;;;0.20;0.20;;;;;;;29.02;36.89;101215.56;5018576;28;20037;-91
2023/09/14 10:29:36;;;;;;;0.20;0.20;;;;;;;29.06;37.48;101219.53;5034438;28;20041;-94
2023/09/14 10:32:01;;;;;;;0.20;0.20;;;;;;;28.94;36.17;101207.66;5001727;28;20078;-93
2023/09/14 10:34:26;;;;;;;0.20;0.20;;;;;;;28.84;36.51;101205.22;5007646;28;20040;-89
2023/09/14 10:36:52;;;;;;;0.20;0.20;;;;;;;28.80;36.26;101215.38;4998451;28;20037;-89
2023/09/14 10:39:22;;;;;;;0.20;0.20;;;;;;;28.78;36.47;101217.41;4998148;28;20052;-91
2023/09/14 10:41:47;;;;;;;0.20;0.20;;;;;;;28.84;36.52;101232.66;4999197;28;20124;-89
2023/09/14 10:44:14;;;;;;;0.30;0.30;;;;;;;28.76;37.07;101235.41;5013896;28;20084;-89
2023/09/14 10:46:42;;;;;;;0.20;0.20;;;;;;;28.72;37.41;101225.31;5013981;28;20675;-92
2023/09/14 10:49:07;;;;;;;0.20;0.20;;;;;;;28.73;37.71;101226.97;5005260;28;20029;-92
2023/09/14 10:51:33;;;;;;;0.20;0.20;;;;;;;28.72;37.96;101223.47;5017686;28;20086;-90
2023/09/14 10:54:00;;;;;;;0.28;0.28;;;;;;;28.76;38.11;101232.75;5017340;28;20029;-90
2023/09/14 10:56:31;;;;;;;0.20;0.20;;;;;;;28.64;37.96;101236.84;5001705;28;20036;-92
2023/09/14 10:58:57;;;;;;;0.20;0.20;;;;;;;28.53;38.59;101237.25;5000133;28;20028;-90
2023/09/14 11:01:26;;;;;;;0.20;0.20;;;;;;;28.48;37.95;101216.47;4988474;28;20048;-91
2023/09/14 11:04:13;;;;;;;0.20;0.20;;;;;;;28.47;39.34;101232.63;5028698;28;20106;-93
2023/09/14 11:06:48;;;;;;;0.20;0.20;;;;;;;28.51;39.70;101232.09;5022056;28;20029;-93
2023/09/14 11:09:14;;;;;;;0.20;0.20;;;;;;;28.59;39.21;101233.88;5019797;28;20053;-92
2023/09/14 11:11:40;;;;;;;0.20;0.20;;;;;;;28.72;38.08;101222.63;5017316;28;20045;-92
2023/09/14 11:14:10;;;;;;;0.20;0.20;;;;;;;28.90;37.43;101228.47;4998712;28;20038;-91
2023/09/14 11:16:52;;;;;;;0.20;0.20;;;;;;;28.70;38.00;101193.50;5001493;28;20052;-93
2023/09/14 11:19:30;;;;;;;0.20;0.20;;;;;;;28.95;36.94;101219.97;4986500;28;20033;-93